Time;durP1;ratioP1;P1;durP2;ratioP2;P2;SDS_P1;SDS_P2;PMS_P1;PMS_P2;Temp;Humidity;BMP_temperature;BMP_pressure;BME280_temperature;BME280_humidity;BME280_pressure;Samples;Min_cycle;Max_cycle;Signal;HPM_P1;HPM_P2
2022/08/09 00:00:30;;;;;;;17.83;11.52;;;;;;;;;;4389557;32;20066;-68
2022/08/09 00:02:57;;;;;;;15.90;10.02;;;;;;;;;;4402675;32;20101;-66
2022/08/09 00:05:24;;;;;;;17.58;10.55;;;;;;;;;;4377014;32;20173;-67
2022/08/09 00:07:50;;;;;;;13.32;9.25;;;;;;;;;;4402235;32;20077;-66
2022/08/09 00:10:17;;;;;;;14.20;10.48;;;;;;;;;;4389434;32;20524;-67
2022/08/09 00:12:44;;;;;;;19.20;10.60;;;;;;;;;;4403022;32;20467;-67
2022/08/09 00:15:11;;;;;;;16.30;9.50;;;;;;;;;;4394827;32;20142;-67
2022/08/09 00:17:38;;;;;;;13.30;9.10;;;;;;;;;;4379828;32;20135;-68
2022/08/09 00:20:05;;;;;;;14.43;9.48;;;;;;;;;;4392289;32;20082;-67
2022/08/09 00:22:32;;;;;;;14.98;9.25;;;;;;;;;;4379344;32;20078;-67
2022/08/09 00:24:59;;;;;;;13.88;8.88;;;;;;;;;;4379447;32;20108;-67
2022/08/09 00:27:25;;;;;;;13.35;9.95;;;;;;;;;;4379455;32;20101;-66
2022/08/09 00:29:52;;;;;;;13.00;9.65;;;;;;;;;;4367242;32;20101;-67
2022/08/09 00:32:20;;;;;;;13.35;9.18;;;;;;;;;;4380081;32;20074;-67
2022/08/09 00:34:47;;;;;;;12.30;9.27;;;;;;;;;;4379978;32;20153;-66
2022/08/09 00:37:14;;;;;;;13.45;8.75;;;;;;;;;;4366742;32;20081;-67
2022/08/09 00:39:41;;;;;;;12.75;8.85;;;;;;;;;;4366557;32;20078;-67
2022/08/09 00:42:08;;;;;;;11.35;9.30;;;;;;;;;;4392874;32;20104;-67
2022/08/09 00:44:34;;;;;;;12.30;8.73;;;;;;;;;;4379209;32;20089;-66
2022/08/09 00:47:01;;;;;;;12.40;9.43;;;;;;;;;;4391719;32;20167;-67
2022/08/09 00:49:28;;;;;;;13.05;8.98;;;;;;;;;;4392190;32;20093;-67
2022/08/09 00:51:55;;;;;;;12.35;8.55;;;;;;;;;;4391836;32;20499;-66
2022/08/09 00:54:24;;;;;;;11.80;8.80;;;;;;;;;;4366849;32;20096;-67
2022/08/09 00:56:50;;;;;;;11.88;8.68;;;;;;;;;;4391232;32;20080;-67
2022/08/09 00:59:17;;;;;;;11.88;8.60;;;;;;;;;;4379149;32;20080;-66
2022/08/09 01:01:45;;;;;;;13.70;9.07;;;;;;;;;;4367698;32;20437;-66
2022/08/09 01:04:25;;;;;;;12.40;8.40;;;;;;;;;;4391891;32;20089;-67
2022/08/09 01:07:17;;;;;;;14.13;9.20;;;;;;;;;;4366287;32;20078;-66
2022/08/09 01:10:05;;;;;;;13.73;9.38;;;;;;;;;;4394236;32;20495;-67
2022/08/09 01:12:46;;;;;;;11.25;8.20;;;;;;;;;;4391382;32;20108;-65
2022/08/09 01:15:15;;;;;;;10.50;8.38;;;;;;;;;;4391514;32;20083;-67
2022/08/09 01:17:50;;;;;;;13.85;8.65;;;;;;;;;;4391159;32;20073;-67
2022/08/09 01:20:47;;;;;;;12.75;9.60;;;;;;;;;;4391294;32;20077;-66
2022/08/09 01:23:23;;;;;;;11.80;9.05;;;;;;;;;;4391606;32;20090;-67
2022/08/09 01:26:01;;;;;;;11.55;8.50;;;;;;;;;;4390516;32;20074;-69
2022/08/09 01:28:30;;;;;;;12.70;8.88;;;;;;;;;;4392207;32;20085;-66
2022/08/09 01:30:58;;;;;;;13.05;9.15;;;;;;;;;;4378437;32;20089;-66
2022/08/09 01:33:27;;;;;;;12.35;9.32;;;;;;;;;;4378510;32;20081;-66
2022/08/09 01:36:10;;;;;;;11.77;8.98;;;;;;;;;;4391739;32;20502;-67
2022/08/09 01:38:40;;;;;;;13.55;9.13;;;;;;;;;;4366437;32;20110;-67
2022/08/09 01:41:28;;;;;;;13.55;9.00;;;;;;;;;;4390965;32;20089;-66
2022/08/09 01:43:59;;;;;;;11.40;9.13;;;;;;;;;;4391496;32;20097;-66
2022/08/09 01:46:38;;;;;;;15.98;8.98;;;;;;;;;;4390861;32;20070;-66
2022/08/09 01:49:10;;;;;;;14.15;9.50;;;;;;;;;;4390675;32;20104;-67
2022/08/09 01:51:39;;;;;;;12.43;8.20;;;;;;;;;;4391321;32;20081;-66
2022/08/09 01:54:07;;;;;;;14.38;9.48;;;;;;;;;;4365631;32;20501;-67
2022/08/09 01:56:36;;;;;;;12.93;9.05;;;;;;;;;;4365667;32;20093;-67
2022/08/09 01:59:07;;;;;;;15.43;9.40;;;;;;;;;;4391934;32;20180;-67
2022/08/09 02:01:35;;;;;;;12.50;9.07;;;;;;;;;;4378765;32;20069;-66
2022/08/09 02:04:03;;;;;;;12.65;8.57;;;;;;;;;;4391773;32;20520;-67
2022/08/09 02:09:18;;;;;;;13.65;8.63;;;;;;;;;;4380043;32;20096;-67
2022/08/09 02:11:45;;;;;;;12.15;8.95;;;;;;;;;;4377568;32;20521;-67
2022/08/09 02:14:14;;;;;;;14.48;9.25;;;;;;;;;;4378461;32;20503;-67
2022/08/09 02:16:42;;;;;;;12.82;9.18;;;;;;;;;;4390373;32;20078;-66
2022/08/09 02:19:09;;;;;;;11.95;9.25;;;;;;;;;;4377841;32;20086;-67
2022/08/09 02:21:41;;;;;;;13.93;8.95;;;;;;;;;;4390201;32;20145;-67
2022/08/09 02:24:11;;;;;;;14.07;10.02;;;;;;;;;;4378286;32;20096;-68
2022/08/09 02:26:38;;;;;;;11.35;9.10;;;;;;;;;;4378162;32;20170;-65
2022/08/09 02:29:32;;;;;;;12.00;8.68;;;;;;;;;;4365980;32;20103;-66
2022/08/09 02:32:01;;;;;;;12.52;8.73;;;;;;;;;;4375135;32;20451;-66
2022/08/09 02:34:32;;;;;;;12.73;9.07;;;;;;;;;;4377449;32;20097;-67
2022/08/09 02:37:02;;;;;;;15.13;9.70;;;;;;;;;;4389856;32;20172;-66
2022/08/09 02:39:37;;;;;;;13.77;10.07;;;;;;;;;;4378071;32;20081;-67
2022/08/09 02:42:11;;;;;;;13.82;10.05;;;;;;;;;;4377609;32;20145;-66
2022/08/09 02:44:41;;;;;;;13.18;9.73;;;;;;;;;;4390517;32;20505;-67
2022/08/09 02:47:10;;;;;;;13.50;10.13;;;;;;;;;;4390582;32;20097;-67
2022/08/09 02:49:59;;;;;;;13.43;9.48;;;;;;;;;;4378429;32;20069;-66
2022/08/09 02:52:40;;;;;;;15.32;10.13;;;;;;;;;;4378257;32;20093;-67
2022/08/09 02:55:08;;;;;;;14.00;10.15;;;;;;;;;;4365567;32;20077;-66
2022/08/09 02:57:37;;;;;;;15.57;10.13;;;;;;;;;;4365047;32;20086;-67
2022/08/09 03:00:08;;;;;;;13.32;10.82;;;;;;;;;;4377710;32;20454;-67
2022/08/09 03:02:36;;;;;;;15.55;10.85;;;;;;;;;;4389726;32;20093;-66
2022/08/09 03:05:05;;;;;;;17.60;10.95;;;;;;;;;;4377621;32;20150;-67
2022/08/09 03:07:32;;;;;;;20.37;11.30;;;;;;;;;;4377633;32;20066;-67
2022/08/09 03:09:59;;;;;;;17.00;10.95;;;;;;;;;;4377374;32;20069;-68
2022/08/09 03:12:27;;;;;;;16.10;11.10;;;;;;;;;;4377649;32;20086;-66
2022/08/09 03:14:54;;;;;;;15.57;10.38;;;;;;;;;;4377450;32;20081;-67
2022/08/09 03:17:23;;;;;;;14.50;10.30;;;;;;;;;;4365025;32;20092;-67
2022/08/09 03:19:50;;;;;;;12.20;10.25;;;;;;;;;;4377792;32;20089;-66
2022/08/09 03:22:18;;;;;;;14.93;9.38;;;;;;;;;;4389824;32;20073;-66
2022/08/09 03:24:45;;;;;;;11.80;8.77;;;;;;;;;;4364655;32;20082;-67
2022/08/09 03:27:12;;;;;;;14.15;8.90;;;;;;;;;;4377017;32;20085;-67
2022/08/09 03:29:39;;;;;;;15.63;9.57;;;;;;;;;;4377514;32;20508;-67
2022/08/09 03:32:07;;;;;;;10.77;7.65;;;;;;;;;;4377064;32;20081;-67
2022/08/09 03:34:34;;;;;;;12.23;8.07;;;;;;;;;;4389673;32;20177;-67
2022/08/09 03:37:00;;;;;;;11.60;8.05;;;;;;;;;;4390092;32;20162;-67
2022/08/09 03:39:28;;;;;;;10.27;7.95;;;;;;;;;;4389743;32;20611;-67
2022/08/09 03:41:55;;;;;;;14.70;9.23;;;;;;;;;;4389637;32;20086;-67
2022/08/09 03:44:23;;;;;;;13.40;9.10;;;;;;;;;;4377127;32;20151;-67
2022/08/09 03:46:50;;;;;;;11.40;7.85;;;;;;;;;;4390062;32;20081;-67
2022/08/09 03:49:18;;;;;;;10.60;8.43;;;;;;;;;;4377984;32;20077;-67
2022/08/09 03:51:47;;;;;;;15.20;8.88;;;;;;;;;;4380114;32;20128;-67
2022/08/09 03:54:14;;;;;;;12.30;8.95;;;;;;;;;;4392941;32;20065;-67
2022/08/09 03:56:43;;;;;;;19.85;11.77;;;;;;;;;;4380270;32;20074;-67
2022/08/09 03:59:16;;;;;;;14.60;9.65;;;;;;;;;;4380245;32;20081;-67
2022/08/09 04:01:43;;;;;;;13.95;10.00;;;;;;;;;;4367414;32;20173;-67
2022/08/09 04:04:11;;;;;;;15.55;9.60;;;;;;;;;;4366976;32;20574;-67
2022/08/09 04:06:38;;;;;;;16.05;9.50;;;;;;;;;;4368029;32;20496;-66
2022/08/09 04:09:06;;;;;;;16.15;10.85;;;;;;;;;;4393693;32;20097;-67
2022/08/09 04:12:04;;;;;;;19.20;10.98;;;;;;;;;;4379821;32;20077;-66
2022/08/09 04:14:30;;;;;;;19.12;10.27;;;;;;;;;;4393336;32;20532;-66
2022/08/09 04:16:57;;;;;;;13.80;10.00;;;;;;;;;;4392078;32;20096;-67
2022/08/09 04:19:24;;;;;;;14.57;9.57;;;;;;;;;;4379460;32;20107;-67
2022/08/09 04:21:51;;;;;;;12.52;9.95;;;;;;;;;;4367342;32;20151;-67
2022/08/09 04:24:18;;;;;;;19.35;9.50;;;;;;;;;;4391741;32;20120;-65
2022/08/09 04:26:45;;;;;;;14.77;9.55;;;;;;;;;;4366903;32;20459;-67
2022/08/09 04:29:12;;;;;;;12.43;9.00;;;;;;;;;;4391744;32;20496;-66
2022/08/09 04:31:38;;;;;;;10.27;8.07;;;;;;;;;;4379257;32;20076;-67
2022/08/09 04:34:05;;;;;;;14.70;9.38;;;;;;;;;;4391861;32;20073;-67
2022/08/09 04:36:32;;;;;;;13.80;8.43;;;;;;;;;;4392148;32;20090;-66
2022/08/09 04:39:01;;;;;;;15.30;8.73;;;;;;;;;;4391613;32;20089;-66
2022/08/09 04:41:29;;;;;;;15.38;9.40;;;;;;;;;;4379320;32;20067;-67
2022/08/09 04:43:55;;;;;;;13.70;9.10;;;;;;;;;;4366791;32;20167;-67
2022/08/09 04:46:22;;;;;;;13.77;9.13;;;;;;;;;;4379295;32;20094;-67
2022/08/09 04:48:49;;;;;;;11.80;8.63;;;;;;;;;;4392262;32;20141;-66
2022/08/09 04:51:16;;;;;;;13.48;9.23;;;;;;;;;;4379832;32;20077;-66
2022/08/09 04:53:42;;;;;;;18.37;9.48;;;;;;;;;;4366409;32;20539;-67
2022/08/09 04:56:09;;;;;;;14.90;9.13;;;;;;;;;;4378838;32;20070;-66
2022/08/09 04:58:36;;;;;;;18.95;9.65;;;;;;;;;;4378950;32;20070;-68
2022/08/09 05:01:03;;;;;;;14.77;9.80;;;;;;;;;;4379453;32;20078;-67
2022/08/09 05:03:30;;;;;;;18.65;9.85;;;;;;;;;;4392548;32;20088;-66
2022/08/09 05:05:57;;;;;;;15.63;8.40;;;;;;;;;;4392628;32;20084;-66
2022/08/09 05:08:24;;;;;;;12.32;8.38;;;;;;;;;;4379029;32;20094;-66
2022/08/09 05:10:50;;;;;;;11.98;8.38;;;;;;;;;;4392947;32;20077;-68
2022/08/09 05:13:17;;;;;;;11.98;7.87;;;;;;;;;;4378765;32;20077;-66
2022/08/09 05:15:44;;;;;;;11.50;7.53;;;;;;;;;;4393232;32;20066;-65
2022/08/09 05:18:10;;;;;;;13.93;8.93;;;;;;;;;;4366731;32;20154;-67
2022/08/09 05:20:38;;;;;;;9.80;7.80;;;;;;;;;;4378935;32;20154;-66
2022/08/09 05:23:04;;;;;;;12.52;9.02;;;;;;;;;;4378556;32;20072;-67
2022/08/09 05:25:31;;;;;;;14.10;8.98;;;;;;;;;;4371514;32;20217;-66
2022/08/09 05:27:58;;;;;;;11.88;7.53;;;;;;;;;;4386548;32;20162;-67
2022/08/09 05:30:25;;;;;;;12.15;8.23;;;;;;;;;;4397612;32;20070;-67
2022/08/09 05:32:52;;;;;;;10.52;7.95;;;;;;;;;;4386055;32;20077;-67
2022/08/09 05:35:20;;;;;;;11.02;7.37;;;;;;;;;;4373482;32;20061;-66
2022/08/09 05:37:47;;;;;;;10.75;7.72;;;;;;;;;;4397582;32;20161;-67
2022/08/09 05:40:14;;;;;;;9.60;7.37;;;;;;;;;;4398390;32;20513;-66
2022/08/09 05:42:41;;;;;;;15.75;7.37;;;;;;;;;;4371204;32;20151;-67
2022/08/09 05:45:09;;;;;;;14.27;7.80;;;;;;;;;;4379475;32;20523;-67
2022/08/09 05:47:36;;;;;;;15.00;7.68;;;;;;;;;;4391008;32;20166;-67
2022/08/09 05:50:03;;;;;;;10.30;7.65;;;;;;;;;;4378019;32;20081;-67
2022/08/09 05:52:30;;;;;;;15.25;9.20;;;;;;;;;;4378069;32;20083;-67
2022/08/09 05:54:57;;;;;;;14.40;7.90;;;;;;;;;;4378048;32;20112;-67
2022/08/09 05:57:23;;;;;;;10.75;8.00;;;;;;;;;;4365534;32;20475;-67
2022/08/09 05:59:50;;;;;;;11.15;8.10;;;;;;;;;;4392320;32;20144;-67
2022/08/09 06:02:17;;;;;;;13.10;8.25;;;;;;;;;;4378036;32;20082;-66
2022/08/09 06:04:43;;;;;;;12.77;8.50;;;;;;;;;;4390999;32;20440;-67
2022/08/09 06:07:10;;;;;;;9.27;7.65;;;;;;;;;;4377813;32;20082;-67
2022/08/09 06:09:37;;;;;;;11.68;9.07;;;;;;;;;;4378284;32;20600;-67
2022/08/09 06:12:04;;;;;;;13.85;8.80;;;;;;;;;;4364839;32;20165;-67
2022/08/09 06:14:32;;;;;;;10.77;8.32;;;;;;;;;;4365470;32;20158;-66
2022/08/09 06:16:58;;;;;;;12.18;8.43;;;;;;;;;;4365739;32;20089;-67
2022/08/09 06:19:25;;;;;;;11.45;7.40;;;;;;;;;;4365132;32;20178;-67
2022/08/09 06:21:52;;;;;;;15.63;8.32;;;;;;;;;;4389979;32;20149;-67
2022/08/09 06:24:19;;;;;;;13.30;8.30;;;;;;;;;;4377726;32;20074;-66
2022/08/09 06:26:46;;;;;;;9.25;7.78;;;;;;;;;;4365151;32;20090;-65
2022/08/09 06:29:13;;;;;;;14.68;8.23;;;;;;;;;;4390117;32;20078;-67
2022/08/09 06:31:40;;;;;;;11.05;7.70;;;;;;;;;;4364834;32;20190;-67
2022/08/09 06:34:07;;;;;;;10.63;7.80;;;;;;;;;;4389955;32;20074;-67
2022/08/09 06:36:33;;;;;;;14.30;8.40;;;;;;;;;;4390382;32;20254;-69
2022/08/09 06:39:00;;;;;;;11.85;7.20;;;;;;;;;;4390046;32;20097;-67
2022/08/09 06:41:27;;;;;;;9.52;7.12;;;;;;;;;;4389908;32;20101;-66
2022/08/09 06:43:53;;;;;;;9.10;7.68;;;;;;;;;;4365082;32;20078;-66
2022/08/09 06:46:20;;;;;;;10.68;7.50;;;;;;;;;;4377086;32;20474;-68
2022/08/09 06:48:47;;;;;;;9.85;7.12;;;;;;;;;;4364592;32;20068;-67
2022/08/09 06:51:14;;;;;;;14.95;8.23;;;;;;;;;;4389699;32;20072;-67
2022/08/09 06:53:41;;;;;;;9.85;7.05;;;;;;;;;;4389751;32;20135;-67
2022/08/09 06:56:08;;;;;;;9.95;7.03;;;;;;;;;;4377352;32;20082;-66
2022/08/09 06:58:35;;;;;;;10.93;7.07;;;;;;;;;;4389986;32;20193;-67
2022/08/09 07:01:03;;;;;;;10.55;8.10;;;;;;;;;;4364999;32;20145;-66
2022/08/09 07:03:33;;;;;;;11.38;7.75;;;;;;;;;;4364561;32;20082;-67
2022/08/09 07:06:02;;;;;;;10.48;7.65;;;;;;;;;;4377669;32;20077;-66
2022/08/09 07:08:29;;;;;;;9.05;7.00;;;;;;;;;;4377497;32;20085;-67
2022/08/09 07:10:56;;;;;;;10.60;7.75;;;;;;;;;;4390049;32;20180;-67
2022/08/09 07:13:22;;;;;;;13.13;7.62;;;;;;;;;;4390058;32;20076;-66
2022/08/09 07:15:49;;;;;;;12.65;7.87;;;;;;;;;;4389482;32;20154;-67
2022/08/09 07:18:16;;;;;;;12.55;6.57;;;;;;;;;;4377064;32;20094;-68
2022/08/09 07:20:42;;;;;;;11.02;8.05;;;;;;;;;;4391140;32;20542;-66
2022/08/09 07:23:10;;;;;;;11.45;7.85;;;;;;;;;;4389713;32;20166;-67
2022/08/09 07:25:37;;;;;;;11.73;7.05;;;;;;;;;;4366873;32;20096;-68
2022/08/09 07:28:04;;;;;;;12.73;8.02;;;;;;;;;;4367527;32;20155;-67
2022/08/09 07:30:31;;;;;;;8.73;7.40;;;;;;;;;;4393164;32;20073;-68
2022/08/09 07:32:58;;;;;;;9.07;6.50;;;;;;;;;;4380112;32;20085;-67
2022/08/09 07:35:25;;;;;;;7.57;5.80;;;;;;;;;;4392681;32;20076;-67
2022/08/09 07:37:52;;;;;;;10.70;6.93;;;;;;;;;;4392723;32;20074;-66
2022/08/09 07:40:32;;;;;;;9.98;6.80;;;;;;;;;;3857150;37;20058;-68
2022/08/09 07:43:00;;;;;;;8.25;7.00;;;;;;;;;;4418630;32;20073;-67
2022/08/09 07:45:29;;;;;;;8.20;6.87;;;;;;;;;;4393121;32;20083;-66
2022/08/09 07:47:57;;;;;;;7.68;6.30;;;;;;;;;;4418102;32;20081;-67
2022/08/09 07:50:27;;;;;;;11.32;6.90;;;;;;;;;;4392711;32;20084;-66
2022/08/09 07:52:54;;;;;;;10.88;7.03;;;;;;;;;;4405223;32;20149;-66
2022/08/09 07:55:21;;;;;;;7.68;6.68;;;;;;;;;;4392518;32;20084;-68
2022/08/09 07:57:49;;;;;;;9.07;6.47;;;;;;;;;;4405391;32;20077;-67
2022/08/09 08:00:17;;;;;;;7.85;6.65;;;;;;;;;;4406354;32;20158;-67
2022/08/09 08:02:44;;;;;;;8.13;6.28;;;;;;;;;;4405527;32;20073;-66
2022/08/09 08:05:12;;;;;;;10.32;7.00;;;;;;;;;;4403077;32;20104;-66
2022/08/09 08:07:39;;;;;;;9.45;6.47;;;;;;;;;;4377776;32;20073;-67
2022/08/09 08:10:06;;;;;;;8.27;6.32;;;;;;;;;;4402554;32;20177;-67
2022/08/09 08:12:33;;;;;;;9.05;6.43;;;;;;;;;;4390298;32;20085;-67
2022/08/09 08:15:00;;;;;;;8.27;6.12;;;;;;;;;;4402958;32;20085;-65
2022/08/09 08:17:27;;;;;;;9.38;6.47;;;;;;;;;;4377736;32;20112;-65
2022/08/09 08:19:54;;;;;;;8.45;6.30;;;;;;;;;;4377257;32;20082;-67
2022/08/09 08:22:21;;;;;;;8.00;6.47;;;;;;;;;;4402550;32;20085;-66
2022/08/09 08:24:54;;;;;;;9.20;6.72;;;;;;;;;;4403065;32;20527;-66
2022/08/09 08:27:25;;;;;;;8.27;6.07;;;;;;;;;;4378538;32;20159;-66
2022/08/09 08:29:56;;;;;;;8.93;6.43;;;;;;;;;;4390027;32;20078;-66
2022/08/09 08:32:23;;;;;;;9.23;6.68;;;;;;;;;;4377726;32;20062;-66
2022/08/09 08:34:50;;;;;;;7.70;6.28;;;;;;;;;;4389697;32;20105;-66
2022/08/09 08:37:17;;;;;;;8.48;6.60;;;;;;;;;;4389891;32;20078;-67
2022/08/09 08:39:45;;;;;;;8.52;6.43;;;;;;;;;;4389539;32;20085;-67
2022/08/09 08:42:12;;;;;;;9.52;6.18;;;;;;;;;;4402264;32;20085;-67
2022/08/09 08:44:41;;;;;;;6.85;5.70;;;;;;;;;;4402022;32;20104;-66
2022/08/09 08:48:49;;;;;;;8.55;6.10;;;;;;;;;;3834124;37;20461;-67
2022/08/09 08:51:16;;;;;;;7.15;5.87;;;;;;;;;;4378558;32;20156;-66
2022/08/09 08:53:43;;;;;;;9.40;6.87;;;;;;;;;;4390115;32;20089;-67
2022/08/09 08:56:10;;;;;;;9.13;6.15;;;;;;;;;;4390236;32;20163;-66
2022/08/09 08:58:37;;;;;;;8.00;5.78;;;;;;;;;;4390326;32;20123;-65
2022/08/09 09:01:04;;;;;;;8.73;5.70;;;;;;;;;;4364945;32;20579;-67
2022/08/09 09:03:34;;;;;;;8.77;5.95;;;;;;;;;;4377535;32;20081;-66
2022/08/09 09:06:06;;;;;;;8.85;7.28;;;;;;;;;;4377445;32;20070;-67
2022/08/09 09:08:36;;;;;;;7.97;6.00;;;;;;;;;;4377616;32;20077;-67
2022/08/09 09:11:04;;;;;;;6.35;5.28;;;;;;;;;;4389954;32;20149;-66
2022/08/09 09:13:41;;;;;;;8.00;6.25;;;;;;;;;;4365225;32;20161;-65
2022/08/09 09:16:08;;;;;;;7.37;5.82;;;;;;;;;;4378498;32;20162;-67
2022/08/09 09:18:35;;;;;;;10.30;6.62;;;;;;;;;;4404018;32;20519;-66
2022/08/09 09:21:01;;;;;;;6.75;5.65;;;;;;;;;;4389901;32;20168;-67
2022/08/09 09:23:54;;;;;;;7.78;6.30;;;;;;;;;;4377595;32;20104;-66
2022/08/09 09:26:23;;;;;;;7.85;6.43;;;;;;;;;;4374280;32;20162;-67
2022/08/09 09:28:50;;;;;;;7.45;6.25;;;;;;;;;;4377969;32;20541;-67
2022/08/09 09:31:18;;;;;;;6.78;5.70;;;;;;;;;;4390722;32;20080;-66
2022/08/09 09:33:45;;;;;;;7.60;6.80;;;;;;;;;;4364633;32;20105;-68
2022/08/09 09:36:13;;;;;;;7.80;6.43;;;;;;;;;;4377625;32;20091;-66
2022/08/09 09:38:46;;;;;;;7.60;6.72;;;;;;;;;;4377720;32;20070;-66
2022/08/09 09:41:32;;;;;;;10.27;6.90;;;;;;;;;;4377364;32;20101;-68
2022/08/09 09:44:05;;;;;;;10.63;6.90;;;;;;;;;;4377360;32;20157;-69
2022/08/09 09:46:33;;;;;;;8.93;7.15;;;;;;;;;;4389953;32;20078;-67
2022/08/09 09:49:03;;;;;;;9.00;7.28;;;;;;;;;;4364461;32;20070;-67
2022/08/09 09:51:31;;;;;;;9.23;8.18;;;;;;;;;;4364574;32;20082;-67
2022/08/09 09:54:10;;;;;;;10.90;7.28;;;;;;;;;;4376869;32;20077;-68
2022/08/09 09:56:45;;;;;;;9.75;7.65;;;;;;;;;;4377622;32;20451;-66
2022/08/09 09:59:14;;;;;;;10.73;8.02;;;;;;;;;;4370847;32;20109;-68
2022/08/09 10:01:45;;;;;;;9.48;7.57;;;;;;;;;;4367262;32;20086;-66
2022/08/09 10:04:15;;;;;;;11.10;7.03;;;;;;;;;;4367679;32;20145;-65
2022/08/09 10:06:44;;;;;;;11.73;6.85;;;;;;;;;;4366534;32;20093;-66
2022/08/09 10:09:12;;;;;;;10.32;7.25;;;;;;;;;;4379518;32;20109;-67
2022/08/09 10:11:39;;;;;;;13.00;6.43;;;;;;;;;;4366804;32;20089;-67
2022/08/09 10:14:06;;;;;;;13.57;7.18;;;;;;;;;;4366570;32;20516;-66
2022/08/09 10:16:37;;;;;;;11.35;7.25;;;;;;;;;;4354180;32;20101;-66
2022/08/09 10:19:08;;;;;;;14.45;7.32;;;;;;;;;;4354254;32;20090;-66
2022/08/09 10:21:35;;;;;;;8.15;6.15;;;;;;;;;;4366640;32;20089;-67
2022/08/09 10:24:03;;;;;;;10.38;6.90;;;;;;;;;;4353712;32;20070;-66
2022/08/09 10:26:31;;;;;;;8.15;6.85;;;;;;;;;;4366430;32;20073;-66
2022/08/09 10:28:58;;;;;;;9.23;6.37;;;;;;;;;;4353932;32;20543;-66
2022/08/09 10:31:24;;;;;;;10.60;7.10;;;;;;;;;;4379129;32;20085;-66
2022/08/09 10:33:51;;;;;;;8.98;6.47;;;;;;;;;;4392599;32;20162;-68
2022/08/09 10:36:18;;;;;;;8.30;5.97;;;;;;;;;;4379467;32;20223;-66
2022/08/09 10:38:46;;;;;;;9.70;6.25;;;;;;;;;;4354117;32;20089;-67
2022/08/09 10:41:15;;;;;;;8.45;6.18;;;;;;;;;;4354127;32;20066;-66
2022/08/09 10:43:46;;;;;;;8.55;6.12;;;;;;;;;;4392729;32;20101;-66
2022/08/09 10:46:17;;;;;;;10.05;6.30;;;;;;;;;;4354033;32;20166;-67
2022/08/09 10:49:02;;;;;;;11.55;6.25;;;;;;;;;;4366729;32;20104;-67
2022/08/09 10:52:06;;;;;;;10.00;6.57;;;;;;;;;;4367376;32;20162;-65
2022/08/09 10:54:33;;;;;;;8.02;6.53;;;;;;;;;;4392400;32;20058;-68
2022/08/09 10:57:12;;;;;;;7.68;6.28;;;;;;;;;;4366271;32;20084;-67
2022/08/09 10:59:40;;;;;;;9.38;7.00;;;;;;;;;;4366591;32;20080;-65
2022/08/09 11:02:08;;;;;;;9.48;6.15;;;;;;;;;;4378793;32;20094;-67
2022/08/09 11:04:35;;;;;;;8.85;6.62;;;;;;;;;;4365880;32;20100;-67
2022/08/09 11:07:02;;;;;;;9.20;7.03;;;;;;;;;;4378944;32;20507;-66
2022/08/09 11:09:38;;;;;;;9.68;7.97;;;;;;;;;;4378714;32;20161;-67
2022/08/09 11:12:11;;;;;;;;;;;;;;;;;;4378198;32;20070;-67
2022/08/09 11:14:56;;;;;;;10.07;7.47;;;;;;;;;;4366069;32;20463;-65
2022/08/09 11:17:23;;;;;;;10.45;7.45;;;;;;;;;;4378503;32;20104;-66
2022/08/09 11:19:50;;;;;;;9.63;6.93;;;;;;;;;;4378002;32;20093;-66
2022/08/09 11:22:17;;;;;;;9.98;7.75;;;;;;;;;;4378263;32;20150;-65
2022/08/09 11:25:04;;;;;;;9.90;6.70;;;;;;;;;;4365941;32;20161;-65
2022/08/09 11:27:38;;;;;;;11.63;7.40;;;;;;;;;;4365525;32;20081;-64
2022/08/09 11:30:08;;;;;;;9.07;7.43;;;;;;;;;;4378710;32;20080;-65
2022/08/09 11:32:57;;;;;;;8.30;7.03;;;;;;;;;;4378544;32;20076;-65
2022/08/09 11:35:27;;;;;;;9.30;7.40;;;;;;;;;;4378055;32;20078;-64
2022/08/09 11:37:57;;;;;;;11.15;7.70;;;;;;;;;;4365451;32;20089;-63
2022/08/09 11:40:28;;;;;;;12.70;7.80;;;;;;;;;;4391815;32;20077;-66
2022/08/09 11:42:57;;;;;;;8.98;7.55;;;;;;;;;;4366300;32;20077;-66
2022/08/09 11:45:37;;;;;;;9.55;6.85;;;;;;;;;;4378153;32;20101;-66
2022/08/09 11:48:17;;;;;;;8.90;7.10;;;;;;;;;;4353268;32;20073;-65
2022/08/09 11:50:56;;;;;;;9.13;6.85;;;;;;;;;;4377706;32;20066;-66
2022/08/09 11:53:24;;;;;;;8.38;7.07;;;;;;;;;;4377703;32;20097;-66
2022/08/09 11:55:53;;;;;;;10.13;7.30;;;;;;;;;;4377872;32;20073;-67
2022/08/09 11:58:20;;;;;;;11.68;7.68;;;;;;;;;;4378371;32;20094;-67
2022/08/09 12:00:51;;;;;;;11.30;6.85;;;;;;;;;;4377590;32;20130;-66
2022/08/09 12:03:22;;;;;;;9.15;7.40;;;;;;;;;;4378295;32;20079;-67
2022/08/09 12:05:50;;;;;;;10.98;7.57;;;;;;;;;;4377403;32;20074;-67
2022/08/09 12:08:18;;;;;;;10.32;7.65;;;;;;;;;;4377723;32;20098;-67
2022/08/09 12:10:50;;;;;;;9.02;7.15;;;;;;;;;;4378313;32;20085;-67
2022/08/09 12:13:29;;;;;;;9.35;7.10;;;;;;;;;;4365306;32;20101;-65
2022/08/09 12:16:08;;;;;;;11.27;8.00;;;;;;;;;;4365478;32;20077;-67
2022/08/09 12:18:36;;;;;;;8.57;7.28;;;;;;;;;;4377636;32;20587;-68
2022/08/09 12:21:06;;;;;;;10.73;7.05;;;;;;;;;;4353024;32;20093;-64
2022/08/09 12:23:33;;;;;;;10.43;7.00;;;;;;;;;;4364883;32;20081;-67
2022/08/09 12:26:02;;;;;;;9.23;6.80;;;;;;;;;;4365145;32;20456;-66
2022/08/09 12:28:28;;;;;;;8.40;6.53;;;;;;;;;;4364840;32;20093;-67
2022/08/09 12:30:56;;;;;;;8.60;6.30;;;;;;;;;;4377462;32;20089;-64
2022/08/09 12:33:24;;;;;;;10.00;6.75;;;;;;;;;;4365011;32;20084;-65
2022/08/09 12:36:03;;;;;;;9.52;7.05;;;;;;;;;;4365000;32;20174;-66
2022/08/09 12:38:30;;;;;;;9.98;6.50;;;;;;;;;;4365399;32;20091;-69
2022/08/09 12:40:58;;;;;;;8.55;6.68;;;;;;;;;;4364680;32;20092;-71
2022/08/09 12:43:27;;;;;;;10.55;6.68;;;;;;;;;;4365170;32;20133;-66
2022/08/09 12:45:55;;;;;;;8.98;6.53;;;;;;;;;;4364807;32;20101;-68
2022/08/09 12:48:22;;;;;;;7.90;6.40;;;;;;;;;;4376729;32;20141;-68
2022/08/09 12:50:50;;;;;;;8.43;6.90;;;;;;;;;;4377429;32;20531;-67
2022/08/09 12:53:33;;;;;;;7.47;6.57;;;;;;;;;;4364648;32;20088;-67
2022/08/09 12:56:19;;;;;;;8.52;6.40;;;;;;;;;;4391768;32;20511;-68
2022/08/09 12:59:04;;;;;;;;;;;;;;;;;;4377602;32;20066;-69
2022/08/09 13:01:31;;;;;;;8.13;6.07;;;;;;;;;;4391528;32;20050;-70
2022/08/09 13:04:03;;;;;;;11.95;7.10;;;;;;;;;;4364602;32;20157;-67
2022/08/09 13:06:32;;;;;;;8.80;6.60;;;;;;;;;;4364636;32;20500;-64
2022/08/09 13:09:04;;;;;;;8.70;6.37;;;;;;;;;;4377362;32;20157;-64
2022/08/09 13:11:43;;;;;;;8.13;6.28;;;;;;;;;;4377094;32;20078;-65
2022/08/09 13:14:21;;;;;;;8.23;6.28;;;;;;;;;;4377098;32;20154;-68
2022/08/09 13:16:56;;;;;;;8.00;6.25;;;;;;;;;;4364941;32;20093;-69
2022/08/09 13:19:30;;;;;;;8.13;6.22;;;;;;;;;;4377616;32;20066;-68
2022/08/09 13:22:18;;;;;;;9.93;6.90;;;;;;;;;;4391123;32;20065;-67
2022/08/09 13:25:06;;;;;;;7.70;5.55;;;;;;;;;;4376671;32;20498;-68
2022/08/09 13:27:38;;;;;;;6.97;5.50;;;;;;;;;;4376544;32;20136;-67
2022/08/09 13:30:07;;;;;;;7.65;6.10;;;;;;;;;;4377351;32;20105;-67
2022/08/09 13:32:50;;;;;;;7.60;6.37;;;;;;;;;;4364745;32;20080;-66
2022/08/09 13:35:19;;;;;;;6.93;5.90;;;;;;;;;;4379038;32;20072;-65
2022/08/09 13:37:46;;;;;;;9.95;6.82;;;;;;;;;;4380033;32;20522;-65
2022/08/09 13:40:13;;;;;;;7.05;5.87;;;;;;;;;;4367352;32;20092;-68
2022/08/09 13:42:40;;;;;;;8.48;6.32;;;;;;;;;;4367229;32;20098;-67
2022/08/09 13:45:08;;;;;;;10.13;7.03;;;;;;;;;;4393816;32;20094;-66
2022/08/09 13:47:35;;;;;;;10.35;6.70;;;;;;;;;;4379467;32;20515;-66
2022/08/09 13:50:13;;;;;;;8.38;6.43;;;;;;;;;;4394218;32;20084;-66
2022/08/09 13:52:41;;;;;;;9.60;6.62;;;;;;;;;;4367520;32;20085;-67
2022/08/09 13:55:09;;;;;;;7.80;6.78;;;;;;;;;;4367233;32;20098;-68
2022/08/09 13:57:38;;;;;;;12.18;6.60;;;;;;;;;;4379989;32;20074;-65
2022/08/09 14:00:10;;;;;;;9.18;6.87;;;;;;;;;;4379658;32;20516;-69
2022/08/09 14:02:37;;;;;;;9.60;7.32;;;;;;;;;;4379830;32;20074;-66
2022/08/09 14:05:04;;;;;;;9.10;6.97;;;;;;;;;;4354645;32;20076;-66
2022/08/09 14:07:31;;;;;;;10.30;7.37;;;;;;;;;;4354217;32;20150;-67
2022/08/09 14:09:58;;;;;;;10.32;8.00;;;;;;;;;;4354593;32;20178;-68
2022/08/09 14:12:24;;;;;;;9.48;6.78;;;;;;;;;;4354481;32;20081;-68
2022/08/09 14:14:51;;;;;;;11.95;7.85;;;;;;;;;;4366377;32;20078;-65
2022/08/09 14:17:18;;;;;;;10.77;7.85;;;;;;;;;;4366570;32;20082;-65
2022/08/09 14:19:45;;;;;;;9.88;8.00;;;;;;;;;;4379757;32;20095;-64
2022/08/09 14:22:11;;;;;;;12.13;8.35;;;;;;;;;;4379288;32;20154;-64
2022/08/09 14:24:39;;;;;;;14.57;7.95;;;;;;;;;;4379252;32;20087;-64
2022/08/09 14:27:06;;;;;;;10.45;7.57;;;;;;;;;;4366552;32;20094;-64
2022/08/09 14:29:32;;;;;;;11.82;8.30;;;;;;;;;;4393097;32;20177;-65
2022/08/09 14:31:59;;;;;;;11.30;7.37;;;;;;;;;;4353916;32;20603;-65
2022/08/09 14:34:27;;;;;;;9.52;8.23;;;;;;;;;;4379221;32;20090;-64
2022/08/09 14:36:54;;;;;;;11.32;7.60;;;;;;;;;;4366668;32;20522;-65
2022/08/09 14:39:21;;;;;;;10.10;7.53;;;;;;;;;;4366446;32;20146;-65
2022/08/09 14:41:47;;;;;;;10.57;8.73;;;;;;;;;;4354236;32;20086;-66
2022/08/09 14:44:15;;;;;;;12.52;8.00;;;;;;;;;;4378609;32;20587;-63
2022/08/09 14:46:42;;;;;;;10.27;8.13;;;;;;;;;;4353944;32;20086;-66
2022/08/09 14:49:09;;;;;;;10.82;7.78;;;;;;;;;;4366940;32;20069;-68
2022/08/09 14:51:36;;;;;;;10.90;8.57;;;;;;;;;;4378774;32;20141;-68